UAL2380 KSFO-KDEN
Flight info
| Callsign | UAL2380 |
|---|---|
| Flight time | 1h 43m |
| Altitude | 39000 |
| Route | TRUKN2 SYRAH Q128 JSICA LUDOH BUMMP SSKII3 |
| Aircraft | B77W/H-SDE1E2E3FGHIJ2J3J4J5M1RWXY/LB1D1 |
Departure
| Time | 2026-05-04 00:48 |
|---|---|
| Airport | San Francisco International Airport (KSFO) |
Arrival
| Time | 2026-05-04 02:31 |
|---|---|
| Airport | Denver International Airport (KDEN) |
| Time | Latitude | Longitude | Altitude | Speed | Heading |
|---|---|---|---|---|---|
| 2026-05-03 23:58 | 37.61942 | -122.38337 | 30 ft | 0 kts | 297° |
| 2026-05-04 00:08 | 37.61934 | -122.38317 | 30 ft | 3 kts | 297° |
| 2026-05-04 00:08 | 37.61925 | -122.38296 | 29 ft | 3 kts | 297° |
| 2026-05-04 00:09 | 37.61913 | -122.38275 | 29 ft | 3 kts | 340° |
| 2026-05-04 00:09 | 37.61892 | -122.38271 | 28 ft | 2 kts | 30° |
| 2026-05-04 00:09 | 37.61889 | -122.38273 | 28 ft | 0 kts | 30° |
| 2026-05-04 00:11 | 37.61940 | -122.38333 | 30 ft | 9 kts | 301° |
| 2026-05-04 00:11 | 37.61942 | -122.38337 | 30 ft | 0 kts | 299° |
| 2026-05-04 00:29 | 37.61940 | -122.38333 | 30 ft | 3 kts | 299° |
| 2026-05-04 00:29 | 37.61931 | -122.38313 | 30 ft | 3 kts | 299° |
| 2026-05-04 00:29 | 37.61922 | -122.38293 | 29 ft | 3 kts | 301° |
| 2026-05-04 00:30 | 37.61908 | -122.38274 | 29 ft | 3 kts | 351° |
| 2026-05-04 00:30 | 37.61889 | -122.38275 | 28 ft | 2 kts | 32° |
| 2026-05-04 00:30 | 37.61842 | -122.38312 | 25 ft | 6 kts | 32° |
| 2026-05-04 00:30 | 37.61834 | -122.38319 | 25 ft | 0 kts | 26° |
| 2026-05-04 00:31 | 37.61835 | -122.38319 | 25 ft | 0 kts | 26° |
| 2026-05-04 00:31 | 37.61839 | -122.38320 | 24 ft | 3 kts | 5° |
| 2026-05-04 00:31 | 37.61882 | -122.38320 | 28 ft | 4 kts | 33° |
| 2026-05-04 00:32 | 37.61897 | -122.38306 | 29 ft | 1 kts | 36° |
| 2026-05-04 00:32 | 37.61911 | -122.38289 | 30 ft | 2 kts | 52° |
| 2026-05-04 00:32 | 37.61923 | -122.38278 | 27 ft | 0 kts | 33° |
| 2026-05-04 00:40 | 37.61951 | -122.38210 | 31 ft | 15 kts | 79° |
| 2026-05-04 00:40 | 37.61900 | -122.38054 | 30 ft | 25 kts | 116° |
| 2026-05-04 00:40 | 37.61817 | -122.37828 | 27 ft | 34 kts | 112° |
| 2026-05-04 00:41 | 37.61717 | -122.37517 | 28 ft | 42 kts | 115° |
| 2026-05-04 00:41 | 37.61563 | -122.37141 | 31 ft | 49 kts | 117° |
| 2026-05-04 00:41 | 37.61386 | -122.36810 | 28 ft | 42 kts | 126° |
| 2026-05-04 00:41 | 37.61269 | -122.36552 | 27 ft | 38 kts | 118° |
| 2026-05-04 00:42 | 37.61156 | -122.36287 | 32 ft | 30 kts | 118° |
| 2026-05-04 00:42 | 37.61118 | -122.36195 | 32 ft | 4 kts | 117° |
| 2026-05-04 00:42 | 37.61106 | -122.36166 | 27 ft | 3 kts | 117° |
| 2026-05-04 00:42 | 37.61095 | -122.36137 | 27 ft | 4 kts | 116° |
| 2026-05-04 00:43 | 37.61069 | -122.36070 | 28 ft | 13 kts | 116° |
| 2026-05-04 00:43 | 37.61052 | -122.36013 | 29 ft | 0 kts | 97° |
| 2026-05-04 00:43 | 37.61052 | -122.36011 | 29 ft | 1 kts | 95° |
| 2026-05-04 00:43 | 37.61060 | -122.35961 | 28 ft | 11 kts | 70° |
| 2026-05-04 00:44 | 37.61100 | -122.35905 | 27 ft | 1 kts | 29° |
| 2026-05-04 00:46 | 37.61107 | -122.35900 | 27 ft | 6 kts | 28° |
| 2026-05-04 00:46 | 37.61181 | -122.35891 | 28 ft | 13 kts | 335° |
| 2026-05-04 00:47 | 37.61215 | -122.35950 | 32 ft | 0 kts | 298° |
| 2026-05-04 00:47 | 37.61224 | -122.35972 | 31 ft | 26 kts | 298° |
| 2026-05-04 00:47 | 37.61485 | -122.36602 | 26 ft | 134 kts | 298° |
| 2026-05-04 00:47 | 37.62094 | -122.37995 | 305 ft | 215 kts | 296° |
| 2026-05-04 00:48 | 37.62839 | -122.39811 | 1653 ft | 247 kts | 295° |
| 2026-05-04 00:48 | 37.63755 | -122.41827 | 3316 ft | 288 kts | 308° |
| 2026-05-04 00:48 | 37.65492 | -122.43497 | 4784 ft | 341 kts | 332° |
| 2026-05-04 00:48 | 37.67871 | -122.43394 | 6180 ft | 387 kts | 39° |
| 2026-05-04 00:49 | 37.69323 | -122.40579 | 8079 ft | 390 kts | 86° |
| 2026-05-04 00:49 | 37.69125 | -122.37258 | 11290 ft | 377 kts | 99° |
| 2026-05-04 00:49 | 37.68835 | -122.33807 | 12942 ft | 412 kts | 94° |
| 2026-05-04 00:49 | 37.68982 | -122.30191 | 14253 ft | 404 kts | 83° |
| 2026-05-04 00:50 | 37.69610 | -122.26680 | 15590 ft | 417 kts | 76° |
| 2026-05-04 00:50 | 37.70765 | -122.23241 | 16971 ft | 435 kts | 62° |
| 2026-05-04 00:50 | 37.72504 | -122.20058 | 18429 ft | 446 kts | 57° |
| 2026-05-04 00:50 | 37.74207 | -122.16729 | 19764 ft | 453 kts | 60° |
| 2026-05-04 00:51 | 37.75933 | -122.13421 | 21120 ft | 439 kts | 58° |
| 2026-05-04 00:51 | 37.77503 | -122.10398 | 22501 ft | 390 kts | 60° |
| 2026-05-04 00:51 | 37.78961 | -122.07548 | 23928 ft | 386 kts | 60° |
| 2026-05-04 00:51 | 37.80412 | -122.04724 | 25210 ft | 387 kts | 62° |
| 2026-05-04 00:52 | 37.81566 | -122.01694 | 26569 ft | 381 kts | 70° |
| 2026-05-04 00:52 | 37.82504 | -121.98563 | 28011 ft | 378 kts | 72° |
| 2026-05-04 00:52 | 37.83378 | -121.95432 | 29515 ft | 374 kts | 72° |
| 2026-05-04 00:52 | 37.84163 | -121.92317 | 30888 ft | 368 kts | 77° |
| 2026-05-04 00:53 | 37.84727 | -121.89207 | 32223 ft | 359 kts | 79° |
| 2026-05-04 00:53 | 37.85288 | -121.86068 | 32642 ft | 378 kts | 78° |
| 2026-05-04 00:53 | 37.85911 | -121.82752 | 32949 ft | 397 kts | 78° |
| 2026-05-04 00:53 | 37.86560 | -121.79278 | 33315 ft | 414 kts | 79° |
| 2026-05-04 00:54 | 37.87227 | -121.75652 | 33685 ft | 431 kts | 79° |
| 2026-05-04 00:54 | 37.87922 | -121.71884 | 34038 ft | 448 kts | 79° |
| 2026-05-04 00:54 | 37.88640 | -121.67979 | 34344 ft | 464 kts | 79° |
| 2026-05-04 00:54 | 37.89390 | -121.63919 | 34639 ft | 480 kts | 79° |
| 2026-05-04 00:55 | 37.90150 | -121.59773 | 34936 ft | 489 kts | 79° |
| 2026-05-04 00:55 | 37.90914 | -121.55599 | 35228 ft | 496 kts | 79° |
| 2026-05-04 00:55 | 37.91706 | -121.51271 | 35521 ft | 498 kts | 79° |
| 2026-05-04 00:55 | 37.92470 | -121.47080 | 35816 ft | 493 kts | 79° |
| 2026-05-04 00:56 | 37.93239 | -121.42852 | 36104 ft | 491 kts | 79° |
| 2026-05-04 00:56 | 37.94003 | -121.38630 | 36415 ft | 495 kts | 79° |
| 2026-05-04 00:56 | 37.94783 | -121.34338 | 36742 ft | 505 kts | 78° |
| 2026-05-04 00:56 | 37.95574 | -121.29966 | 37080 ft | 512 kts | 79° |
| 2026-05-04 00:57 | 37.96369 | -121.25556 | 37420 ft | 514 kts | 78° |
| 2026-05-04 00:57 | 37.97164 | -121.21136 | 37736 ft | 514 kts | 78° |
| 2026-05-04 00:57 | 37.97959 | -121.16709 | 38084 ft | 513 kts | 79° |
| 2026-05-04 00:57 | 37.98794 | -121.12304 | 38436 ft | 514 kts | 77° |
| 2026-05-04 00:58 | 37.99510 | -121.07938 | 38695 ft | 497 kts | 82° |
| 2026-05-04 00:58 | 38.00587 | -121.00820 | 38862 ft | 494 kts | 80° |
| 2026-05-04 00:59 | 38.02132 | -120.90803 | 38948 ft | 501 kts | 81° |
| 2026-05-04 00:59 | 38.03250 | -120.83530 | 38958 ft | 502 kts | 81° |
| 2026-05-04 01:00 | 38.04561 | -120.74974 | 38941 ft | 487 kts | 81° |
| 2026-05-04 01:00 | 38.05839 | -120.66579 | 38962 ft | 482 kts | 81° |
| 2026-05-04 01:01 | 38.07117 | -120.58160 | 38980 ft | 488 kts | 81° |
| 2026-05-04 01:01 | 38.08389 | -120.49729 | 38965 ft | 490 kts | 81° |
| 2026-05-04 01:02 | 38.09660 | -120.41262 | 38943 ft | 487 kts | 81° |
| 2026-05-04 01:02 | 38.10921 | -120.32816 | 38945 ft | 487 kts | 81° |
| 2026-05-04 01:03 | 38.12178 | -120.24362 | 38949 ft | 488 kts | 81° |
| 2026-05-04 01:03 | 38.13432 | -120.15870 | 38958 ft | 488 kts | 81° |
| 2026-05-04 01:04 | 38.14677 | -120.07399 | 38954 ft | 490 kts | 81° |
| 2026-05-04 01:04 | 38.15932 | -119.98828 | 38975 ft | 496 kts | 81° |
| 2026-05-04 01:05 | 38.17179 | -119.90255 | 38977 ft | 495 kts | 81° |
| 2026-05-04 01:05 | 38.18423 | -119.81656 | 38961 ft | 495 kts | 82° |
| 2026-05-04 01:06 | 38.19671 | -119.72977 | 38992 ft | 504 kts | 82° |
| 2026-05-04 01:06 | 38.20939 | -119.64127 | 38987 ft | 511 kts | 82° |
| 2026-05-04 01:07 | 38.22198 | -119.55288 | 38953 ft | 508 kts | 82° |
| 2026-05-04 01:07 | 38.23446 | -119.46464 | 38961 ft | 507 kts | 82° |
| 2026-05-04 01:08 | 38.24692 | -119.37607 | 38959 ft | 508 kts | 82° |
| 2026-05-04 01:08 | 38.25930 | -119.28770 | 38917 ft | 514 kts | 82° |
| 2026-05-04 01:09 | 38.27189 | -119.19717 | 38905 ft | 522 kts | 82° |
| 2026-05-04 01:09 | 38.28446 | -119.10632 | 38879 ft | 520 kts | 82° |
| 2026-05-04 01:10 | 38.29688 | -119.01597 | 38862 ft | 517 kts | 82° |
| 2026-05-04 01:10 | 38.30926 | -118.92528 | 38860 ft | 524 kts | 82° |
| 2026-05-04 01:11 | 38.32175 | -118.83349 | 38881 ft | 527 kts | 82° |
| 2026-05-04 01:11 | 38.33418 | -118.74136 | 38888 ft | 525 kts | 82° |
| 2026-05-04 01:12 | 38.34652 | -118.64928 | 38921 ft | 540 kts | 82° |
| 2026-05-04 01:12 | 38.35938 | -118.55320 | 38914 ft | 553 kts | 82° |
| 2026-05-04 01:13 | 38.37201 | -118.45775 | 38877 ft | 546 kts | 82° |
| 2026-05-04 01:13 | 38.38452 | -118.36265 | 38835 ft | 543 kts | 82° |
| 2026-05-04 01:14 | 38.39698 | -118.26753 | 38783 ft | 547 kts | 82° |
| 2026-05-04 01:14 | 38.40952 | -118.17089 | 38760 ft | 552 kts | 82° |
| 2026-05-04 01:15 | 38.42191 | -118.07490 | 38761 ft | 550 kts | 82° |
| 2026-05-04 01:15 | 38.43430 | -117.97818 | 38773 ft | 565 kts | 82° |
| 2026-05-04 01:16 | 38.44707 | -117.87808 | 38761 ft | 573 kts | 82° |
| 2026-05-04 01:16 | 38.45975 | -117.77764 | 38757 ft | 573 kts | 82° |
| 2026-05-04 01:17 | 38.47237 | -117.67721 | 38765 ft | 573 kts | 83° |
| 2026-05-04 01:17 | 38.48491 | -117.57654 | 38776 ft | 573 kts | 83° |
| 2026-05-04 01:18 | 38.49735 | -117.47592 | 38782 ft | 573 kts | 83° |
| 2026-05-04 01:18 | 38.50968 | -117.37568 | 38794 ft | 571 kts | 83° |
| 2026-05-04 01:19 | 38.51959 | -117.27578 | 38804 ft | 569 kts | 89° |
| 2026-05-04 01:19 | 38.51790 | -117.17501 | 38831 ft | 568 kts | 94° |
| 2026-05-04 01:20 | 38.51555 | -117.08011 | 38838 ft | 567 kts | 94° |
| 2026-05-04 01:20 | 38.51303 | -116.97938 | 38835 ft | 571 kts | 95° |
| 2026-05-04 01:21 | 38.51035 | -116.87774 | 38849 ft | 571 kts | 95° |
| 2026-05-04 01:21 | 38.50761 | -116.77632 | 38868 ft | 573 kts | 95° |
| 2026-05-04 01:22 | 38.50478 | -116.67509 | 38863 ft | 573 kts | 95° |
| 2026-05-04 01:22 | 38.50186 | -116.57329 | 38861 ft | 573 kts | 95° |
| 2026-05-04 01:23 | 38.49883 | -116.47132 | 38857 ft | 574 kts | 95° |
| 2026-05-04 01:23 | 38.49576 | -116.37037 | 38862 ft | 573 kts | 95° |
| 2026-05-04 01:24 | 38.49256 | -116.26832 | 38845 ft | 574 kts | 95° |
| 2026-05-04 01:24 | 38.48926 | -116.16597 | 38830 ft | 579 kts | 95° |
| 2026-05-04 01:25 | 38.48585 | -116.06305 | 38818 ft | 579 kts | 95° |
| 2026-05-04 01:25 | 38.48237 | -115.96093 | 38818 ft | 579 kts | 95° |
| 2026-05-04 01:26 | 38.47879 | -115.85805 | 38809 ft | 580 kts | 95° |
| 2026-05-04 01:26 | 38.47511 | -115.75522 | 38801 ft | 580 kts | 95° |
| 2026-05-04 01:27 | 38.47135 | -115.65214 | 38812 ft | 580 kts | 95° |
| 2026-05-04 01:27 | 38.46750 | -115.54946 | 38815 ft | 579 kts | 95° |
| 2026-05-04 01:28 | 38.46356 | -115.44671 | 38785 ft | 583 kts | 96° |
| 2026-05-04 01:28 | 38.45950 | -115.34371 | 38792 ft | 585 kts | 96° |
| 2026-05-04 01:29 | 38.45536 | -115.24009 | 38780 ft | 584 kts | 96° |
| 2026-05-04 01:29 | 38.45110 | -115.13651 | 38786 ft | 584 kts | 96° |
| 2026-05-04 01:30 | 38.44676 | -115.03277 | 38791 ft | 585 kts | 96° |
| 2026-05-04 01:30 | 38.44236 | -114.92999 | 38790 ft | 584 kts | 96° |
| 2026-05-04 01:31 | 38.43785 | -114.82673 | 38787 ft | 583 kts | 96° |
| 2026-05-04 01:31 | 38.43325 | -114.72330 | 38793 ft | 583 kts | 96° |
| 2026-05-04 01:32 | 38.42852 | -114.61944 | 38781 ft | 591 kts | 96° |
| 2026-05-04 01:32 | 38.42367 | -114.51468 | 38789 ft | 591 kts | 96° |
| 2026-05-04 01:33 | 38.41874 | -114.41013 | 38796 ft | 591 kts | 96° |
| 2026-05-04 01:33 | 38.41371 | -114.30565 | 38789 ft | 588 kts | 96° |
| 2026-05-04 01:34 | 38.40863 | -114.20220 | 38800 ft | 587 kts | 96° |
| 2026-05-04 01:34 | 38.40346 | -114.09824 | 38797 ft | 588 kts | 96° |
| 2026-05-04 01:35 | 38.39817 | -113.99415 | 38799 ft | 588 kts | 96° |
| 2026-05-04 01:35 | 38.39278 | -113.89002 | 38790 ft | 588 kts | 96° |
| 2026-05-04 01:36 | 38.38725 | -113.78499 | 38782 ft | 594 kts | 97° |
| 2026-05-04 01:36 | 38.38165 | -113.68003 | 38795 ft | 593 kts | 97° |
| 2026-05-04 01:37 | 38.37593 | -113.57498 | 38806 ft | 593 kts | 97° |
| 2026-05-04 01:37 | 38.37017 | -113.47060 | 38791 ft | 594 kts | 97° |
| 2026-05-04 01:38 | 38.36428 | -113.36568 | 38822 ft | 594 kts | 97° |
| 2026-05-04 01:38 | 38.35827 | -113.26055 | 38859 ft | 594 kts | 97° |
| 2026-05-04 01:39 | 38.35220 | -113.15572 | 38895 ft | 594 kts | 97° |
| 2026-05-04 01:39 | 38.34602 | -113.05078 | 38906 ft | 593 kts | 97° |
| 2026-05-04 01:40 | 38.33976 | -112.94598 | 38903 ft | 593 kts | 97° |
| 2026-05-04 01:40 | 38.33339 | -112.84123 | 38882 ft | 593 kts | 97° |
| 2026-05-04 01:41 | 38.32697 | -112.73710 | 38868 ft | 592 kts | 97° |
| 2026-05-04 01:41 | 38.32048 | -112.63276 | 38866 ft | 592 kts | 97° |
| 2026-05-04 01:42 | 38.31383 | -112.52802 | 38883 ft | 592 kts | 97° |
| 2026-05-04 01:42 | 38.30711 | -112.42359 | 38869 ft | 592 kts | 97° |
| 2026-05-04 01:43 | 38.30031 | -112.31911 | 38886 ft | 592 kts | 97° |
| 2026-05-04 01:43 | 38.29337 | -112.21402 | 38879 ft | 598 kts | 98° |
| 2026-05-04 01:44 | 38.28634 | -112.10913 | 38895 ft | 598 kts | 98° |
| 2026-05-04 01:44 | 38.27919 | -112.00380 | 38905 ft | 597 kts | 98° |
| 2026-05-04 01:45 | 38.27193 | -111.89818 | 38923 ft | 598 kts | 98° |
| 2026-05-04 01:45 | 38.26825 | -111.84516 | 38623 ft | 602 kts | 98° |
| 2026-05-04 01:45 | 38.26081 | -111.73913 | 37651 ft | 601 kts | 98° |
| 2026-05-04 01:46 | 38.25706 | -111.68629 | 37228 ft | 599 kts | 98° |
| 2026-05-04 01:46 | 38.25330 | -111.63355 | 37059 ft | 596 kts | 98° |
| 2026-05-04 01:46 | 38.24575 | -111.52861 | 36940 ft | 595 kts | 98° |
| 2026-05-04 01:47 | 38.23815 | -111.42417 | 36878 ft | 598 kts | 98° |
| 2026-05-04 01:47 | 38.23159 | -111.33561 | 36883 ft | 599 kts | 99° |
| 2026-05-04 01:48 | 38.22375 | -111.23025 | 36886 ft | 598 kts | 98° |
| 2026-05-04 01:48 | 38.21583 | -111.12540 | 36870 ft | 599 kts | 99° |
| 2026-05-04 01:49 | 38.20779 | -111.01985 | 36854 ft | 599 kts | 99° |
| 2026-05-04 01:49 | 38.19963 | -110.91426 | 36853 ft | 599 kts | 99° |
| 2026-05-04 01:50 | 38.19138 | -110.80884 | 36854 ft | 599 kts | 99° |
| 2026-05-04 01:50 | 38.18307 | -110.70360 | 36844 ft | 599 kts | 98° |
| 2026-05-04 01:51 | 38.17463 | -110.59827 | 36777 ft | 601 kts | 99° |
| 2026-05-04 01:51 | 38.16601 | -110.49184 | 36815 ft | 606 kts | 99° |
| 2026-05-04 01:52 | 38.15738 | -110.38604 | 36790 ft | 607 kts | 99° |
| 2026-05-04 01:52 | 38.14853 | -110.27938 | 36798 ft | 607 kts | 99° |
| 2026-05-04 01:53 | 38.13960 | -110.17282 | 36831 ft | 606 kts | 99° |
| 2026-05-04 01:53 | 38.13484 | -110.06570 | 36854 ft | 607 kts | 94° |
| 2026-05-04 01:54 | 38.13192 | -109.95869 | 36842 ft | 607 kts | 94° |
| 2026-05-04 01:54 | 38.12900 | -109.85161 | 36860 ft | 606 kts | 94° |
| 2026-05-04 01:55 | 38.12598 | -109.74453 | 36866 ft | 607 kts | 94° |
| 2026-05-04 01:55 | 38.12288 | -109.63738 | 36857 ft | 610 kts | 94° |
| 2026-05-04 01:56 | 38.11966 | -109.52988 | 36881 ft | 613 kts | 94° |
| 2026-05-04 01:56 | 38.11629 | -109.42155 | 36904 ft | 612 kts | 94° |
| 2026-05-04 01:57 | 38.11288 | -109.31380 | 36903 ft | 611 kts | 94° |
| 2026-05-04 01:57 | 38.10936 | -109.20598 | 36910 ft | 611 kts | 94° |
| 2026-05-04 01:58 | 38.10571 | -109.09804 | 36907 ft | 609 kts | 94° |
| 2026-05-04 01:58 | 38.10201 | -108.99086 | 36923 ft | 607 kts | 93° |
| 2026-05-04 01:59 | 38.10359 | -108.93782 | 36874 ft | 608 kts | 81° |
| 2026-05-04 01:59 | 38.11402 | -108.88598 | 36932 ft | 603 kts | 66° |
| 2026-05-04 01:59 | 38.15083 | -108.79066 | 36935 ft | 601 kts | 58° |
| 2026-05-04 02:00 | 38.18609 | -108.69441 | 36916 ft | 600 kts | 62° |
| 2026-05-04 02:00 | 38.22019 | -108.59718 | 36904 ft | 600 kts | 63° |
| 2026-05-04 02:01 | 38.25404 | -108.50010 | 36919 ft | 601 kts | 63° |
| 2026-05-04 02:01 | 38.28766 | -108.40337 | 36935 ft | 600 kts | 63° |
| 2026-05-04 02:02 | 38.32141 | -108.30602 | 36911 ft | 600 kts | 63° |
| 2026-05-04 02:02 | 38.35502 | -108.20870 | 36945 ft | 600 kts | 63° |
| 2026-05-04 02:03 | 38.38858 | -108.11119 | 36801 ft | 601 kts | 63° |
| 2026-05-04 02:03 | 38.40535 | -108.06246 | 36358 ft | 601 kts | 63° |
| 2026-05-04 02:03 | 38.42211 | -108.01349 | 35922 ft | 601 kts | 63° |
| 2026-05-04 02:04 | 38.43888 | -107.96447 | 35480 ft | 600 kts | 64° |
| 2026-05-04 02:04 | 38.45550 | -107.91587 | 35055 ft | 600 kts | 64° |
| 2026-05-04 02:04 | 38.47195 | -107.86763 | 34632 ft | 599 kts | 64° |
| 2026-05-04 02:04 | 38.48853 | -107.81891 | 34211 ft | 599 kts | 64° |
| 2026-05-04 02:05 | 38.50509 | -107.77023 | 33639 ft | 598 kts | 64° |
| 2026-05-04 02:05 | 38.52162 | -107.72147 | 33189 ft | 590 kts | 64° |
| 2026-05-04 02:05 | 38.53771 | -107.67400 | 32682 ft | 573 kts | 64° |
| 2026-05-04 02:05 | 38.55332 | -107.62788 | 32191 ft | 561 kts | 64° |
| 2026-05-04 02:06 | 38.56867 | -107.58243 | 31740 ft | 550 kts | 64° |
| 2026-05-04 02:06 | 38.58370 | -107.53790 | 31278 ft | 539 kts | 64° |
| 2026-05-04 02:06 | 38.59835 | -107.49433 | 30844 ft | 529 kts | 64° |
| 2026-05-04 02:06 | 38.61278 | -107.45142 | 30420 ft | 520 kts | 64° |
| 2026-05-04 02:07 | 38.62693 | -107.40931 | 29973 ft | 511 kts | 64° |
| 2026-05-04 02:07 | 38.64065 | -107.36842 | 29460 ft | 504 kts | 64° |
| 2026-05-04 02:07 | 38.65441 | -107.32728 | 29002 ft | 504 kts | 64° |
| 2026-05-04 02:07 | 38.66837 | -107.28549 | 28538 ft | 505 kts | 64° |
| 2026-05-04 02:08 | 38.68194 | -107.24482 | 28056 ft | 501 kts | 65° |
| 2026-05-04 02:08 | 38.69557 | -107.20395 | 27584 ft | 496 kts | 65° |
| 2026-05-04 02:08 | 38.70903 | -107.16346 | 27234 ft | 489 kts | 65° |
| 2026-05-04 02:08 | 38.72231 | -107.12353 | 27082 ft | 487 kts | 65° |
| 2026-05-04 02:09 | 38.73562 | -107.08345 | 27020 ft | 489 kts | 65° |
| 2026-05-04 02:09 | 38.74894 | -107.04325 | 27019 ft | 489 kts | 65° |
| 2026-05-04 02:09 | 38.76218 | -107.00324 | 27013 ft | 486 kts | 65° |
| 2026-05-04 02:09 | 38.77535 | -106.96343 | 27013 ft | 486 kts | 65° |
| 2026-05-04 02:10 | 38.78852 | -106.92351 | 27007 ft | 486 kts | 65° |
| 2026-05-04 02:10 | 38.80165 | -106.88365 | 27009 ft | 483 kts | 65° |
| 2026-05-04 02:10 | 38.81471 | -106.84395 | 27017 ft | 483 kts | 65° |
| 2026-05-04 02:10 | 38.82763 | -106.80468 | 27013 ft | 484 kts | 65° |
| 2026-05-04 02:11 | 38.84067 | -106.76493 | 27029 ft | 484 kts | 65° |
| 2026-05-04 02:11 | 38.85378 | -106.72494 | 27026 ft | 484 kts | 65° |
| 2026-05-04 02:11 | 38.86677 | -106.68526 | 26995 ft | 483 kts | 65° |
| 2026-05-04 02:11 | 38.87984 | -106.64524 | 26516 ft | 485 kts | 65° |
| 2026-05-04 02:12 | 38.89279 | -106.60556 | 26080 ft | 478 kts | 65° |
| 2026-05-04 02:12 | 38.90554 | -106.56651 | 25636 ft | 472 kts | 65° |
| 2026-05-04 02:12 | 38.91828 | -106.52784 | 25209 ft | 468 kts | 64° |
| 2026-05-04 02:12 | 38.93203 | -106.49016 | 24809 ft | 465 kts | 62° |
| 2026-05-04 02:13 | 38.94622 | -106.45295 | 24383 ft | 463 kts | 62° |
| 2026-05-04 02:13 | 38.96100 | -106.41658 | 24032 ft | 459 kts | 58° |
| 2026-05-04 02:13 | 38.97736 | -106.38137 | 23655 ft | 454 kts | 56° |
| 2026-05-04 02:13 | 38.99402 | -106.34702 | 23176 ft | 452 kts | 56° |
| 2026-05-04 02:14 | 39.01071 | -106.31311 | 22717 ft | 446 kts | 55° |
| 2026-05-04 02:14 | 39.02706 | -106.28016 | 22229 ft | 441 kts | 55° |
| 2026-05-04 02:14 | 39.04375 | -106.24703 | 21756 ft | 438 kts | 54° |
| 2026-05-04 02:14 | 39.05534 | -106.22526 | 21458 ft | 436 kts | 53° |
| 2026-05-04 02:15 | 39.06959 | -106.19910 | 21072 ft | 433 kts | 52° |
| 2026-05-04 02:15 | 39.08692 | -106.16775 | 20636 ft | 429 kts | 52° |
| 2026-05-04 02:15 | 39.10421 | -106.13671 | 20339 ft | 423 kts | 52° |
| 2026-05-04 02:15 | 39.12144 | -106.10586 | 20224 ft | 423 kts | 52° |
| 2026-05-04 02:16 | 39.13909 | -106.07432 | 20185 ft | 456 kts | 52° |
| 2026-05-04 02:16 | 39.15848 | -106.03974 | 20150 ft | 489 kts | 52° |
| 2026-05-04 02:16 | 39.17812 | -106.00402 | 20086 ft | 488 kts | 54° |
| 2026-05-04 02:16 | 39.19545 | -105.96630 | 20052 ft | 492 kts | 60° |
| 2026-05-04 02:17 | 39.21109 | -105.92694 | 19773 ft | 495 kts | 63° |
| 2026-05-04 02:17 | 39.22561 | -105.88679 | 19333 ft | 488 kts | 64° |
| 2026-05-04 02:17 | 39.23957 | -105.84714 | 18904 ft | 483 kts | 65° |
| 2026-05-04 02:17 | 39.25327 | -105.80789 | 18485 ft | 480 kts | 65° |
| 2026-05-04 02:18 | 39.26682 | -105.76891 | 18045 ft | 477 kts | 65° |
| 2026-05-04 02:18 | 39.28033 | -105.73011 | 17587 ft | 473 kts | 65° |
| 2026-05-04 02:18 | 39.29371 | -105.69148 | 17215 ft | 469 kts | 65° |
| 2026-05-04 02:18 | 39.30705 | -105.65296 | 17053 ft | 467 kts | 64° |
| 2026-05-04 02:19 | 39.32143 | -105.61526 | 16990 ft | 468 kts | 61° |
| 2026-05-04 02:19 | 39.33737 | -105.57864 | 16968 ft | 468 kts | 58° |
| 2026-05-04 02:19 | 39.35408 | -105.54266 | 16952 ft | 467 kts | 57° |
| 2026-05-04 02:19 | 39.37067 | -105.50768 | 16924 ft | 444 kts | 57° |
| 2026-05-04 02:20 | 39.38632 | -105.47481 | 16891 ft | 421 kts | 57° |
| 2026-05-04 02:20 | 39.40139 | -105.44319 | 16715 ft | 409 kts | 57° |
| 2026-05-04 02:20 | 39.41629 | -105.41201 | 16247 ft | 404 kts | 57° |
| 2026-05-04 02:20 | 39.43057 | -105.38105 | 15796 ft | 398 kts | 63° |
| 2026-05-04 02:21 | 39.43840 | -105.34715 | 15314 ft | 394 kts | 82° |
| 2026-05-04 02:21 | 39.44073 | -105.31193 | 14881 ft | 388 kts | 83° |
| 2026-05-04 02:21 | 39.44659 | -105.27812 | 14477 ft | 386 kts | 73° |
| 2026-05-04 02:21 | 39.45415 | -105.24495 | 14054 ft | 380 kts | 71° |
| 2026-05-04 02:22 | 39.46192 | -105.21239 | 13605 ft | 375 kts | 71° |
| 2026-05-04 02:22 | 39.46963 | -105.18070 | 13126 ft | 373 kts | 71° |
| 2026-05-04 02:22 | 39.47748 | -105.14878 | 12660 ft | 371 kts | 71° |
| 2026-05-04 02:22 | 39.48538 | -105.11672 | 12201 ft | 379 kts | 70° |
| 2026-05-04 02:23 | 39.49343 | -105.08426 | 11758 ft | 375 kts | 70° |
| 2026-05-04 02:23 | 39.50130 | -105.05233 | 11351 ft | 371 kts | 70° |
| 2026-05-04 02:23 | 39.50907 | -105.02071 | 10924 ft | 368 kts | 70° |
| 2026-05-04 02:23 | 39.51676 | -104.98919 | 10597 ft | 363 kts | 70° |
| 2026-05-04 02:24 | 39.52428 | -104.95818 | 10202 ft | 359 kts | 70° |
| 2026-05-04 02:24 | 39.53176 | -104.92760 | 9772 ft | 355 kts | 69° |
| 2026-05-04 02:24 | 39.54005 | -104.89762 | 9345 ft | 350 kts | 67° |
| 2026-05-04 02:24 | 39.54850 | -104.86856 | 9150 ft | 339 kts | 66° |
| 2026-05-04 02:25 | 39.55677 | -104.84053 | 9077 ft | 324 kts | 66° |
| 2026-05-04 02:25 | 39.56467 | -104.81385 | 9063 ft | 312 kts | 67° |
| 2026-05-04 02:25 | 39.57247 | -104.78780 | 9032 ft | 310 kts | 66° |
| 2026-05-04 02:25 | 39.58025 | -104.76180 | 9016 ft | 309 kts | 66° |
| 2026-05-04 02:26 | 39.58804 | -104.73588 | 9006 ft | 304 kts | 66° |
| 2026-05-04 02:26 | 39.59557 | -104.71091 | 8969 ft | 289 kts | 64° |
| 2026-05-04 02:26 | 39.60640 | -104.68999 | 8945 ft | 271 kts | 47° |
| 2026-05-04 02:26 | 39.61557 | -104.66906 | 8929 ft | 264 kts | 68° |
| 2026-05-04 02:27 | 39.62539 | -104.65000 | 8715 ft | 282 kts | 10° |
| 2026-05-04 02:27 | 39.64476 | -104.65387 | 8605 ft | 285 kts | 346° |
| 2026-05-04 02:27 | 39.66438 | -104.65735 | 8503 ft | 274 kts | 352° |
| 2026-05-04 02:27 | 39.68325 | -104.65965 | 8265 ft | 283 kts | 351° |
| 2026-05-04 02:28 | 39.70286 | -104.66113 | 8062 ft | 272 kts | 356° |
| 2026-05-04 02:28 | 39.72008 | -104.66135 | 7458 ft | 238 kts | 358° |
| 2026-05-04 02:28 | 39.73679 | -104.66103 | 7233 ft | 245 kts | 358° |
| 2026-05-04 02:28 | 39.75397 | -104.66079 | 6998 ft | 242 kts | 359° |
| 2026-05-04 02:29 | 39.77113 | -104.66079 | 6784 ft | 254 kts | 358° |
| 2026-05-04 02:29 | 39.78812 | -104.66102 | 6667 ft | 229 kts | 359° |
| 2026-05-04 02:29 | 39.80316 | -104.66062 | 6305 ft | 214 kts | 0° |
| 2026-05-04 02:29 | 39.81651 | -104.66034 | 5821 ft | 172 kts | 357° |
| 2026-05-04 02:30 | 39.82433 | -104.66053 | 5605 ft | 171 kts | 358° |
| 2026-05-04 02:30 | 39.83861 | -104.66044 | 5436 ft | 103 kts | 360° |
| 2026-05-04 02:30 | 39.84302 | -104.66040 | 5419 ft | 55 kts | 358° |
| 2026-05-04 02:30 | 39.84695 | -104.66053 | 5415 ft | 59 kts | 346° |
| 2026-05-04 02:31 | 39.84880 | -104.66138 | 5410 ft | 16 kts | 334° |
| 2026-05-04 02:31 | 39.84988 | -104.66207 | 5402 ft | 18 kts | 336° |
| 2026-05-04 02:31 | 39.85149 | -104.66247 | 5401 ft | 31 kts | 354° |
| 2026-05-04 02:31 | 39.85414 | -104.66238 | 5400 ft | 42 kts | 2° |
| 2026-05-04 02:32 | 39.85626 | -104.66247 | 5395 ft | 20 kts | 338° |
| 2026-05-04 02:32 | 39.85681 | -104.66428 | 5387 ft | 30 kts | 269° |
| 2026-05-04 02:32 | 39.85660 | -104.66614 | 5390 ft | 22 kts | 269° |
| 2026-05-04 02:32 | 39.85695 | -104.66834 | 5386 ft | 28 kts | 298° |
| 2026-05-04 02:33 | 39.85728 | -104.67017 | 5389 ft | 16 kts | 272° |
| 2026-05-04 02:33 | 39.85732 | -104.67192 | 5389 ft | 21 kts | 271° |
| 2026-05-04 02:33 | 39.85741 | -104.67262 | 5384 ft | 9 kts | 301° |
| 2026-05-04 02:33 | 39.85790 | -104.67280 | 5387 ft | 0 kts | 358° |